createdAt,value
2023-01-17T00:02:18.737Z,92.71
2023-01-17T00:05:05.538Z,92.26
2023-01-17T00:07:52.090Z,92.21
2023-01-17T00:10:22.134Z,92.59
2023-01-17T00:12:52.495Z,92.51
2023-01-17T00:15:20.458Z,92.13
2023-01-17T00:17:49.794Z,92.54
2023-01-17T00:20:38.726Z,92.22
2023-01-17T00:23:42.130Z,92.74
2023-01-17T00:26:20.017Z,92.78
2023-01-17T00:28:49.336Z,93.16
2023-01-17T00:31:17.444Z,92.92
2023-01-17T00:33:45.467Z,92.93
2023-01-17T00:36:12.919Z,92.89
2023-01-17T00:38:40.837Z,92.48
2023-01-17T00:41:10.442Z,92.64
2023-01-17T00:43:57.191Z,92.81
2023-01-17T00:46:43.425Z,92.55
2023-01-17T00:49:29.713Z,92.50
2023-01-17T00:52:15.914Z,93.65
2023-01-17T00:55:02.314Z,92.86
2023-01-17T00:57:49.858Z,93.17
2023-01-17T01:00:37.628Z,92.62
2023-01-17T01:03:28.293Z,93.18
2023-01-17T01:06:14.478Z,93.28
2023-01-17T01:09:00.254Z,93.52
2023-01-17T01:11:46.542Z,93.26
2023-01-17T01:14:32.237Z,93.31
2023-01-17T01:17:17.951Z,93.56
2023-01-17T01:20:04.005Z,93.39
2023-01-17T01:22:50.897Z,93.42
2023-01-17T01:25:36.597Z,92.87
2023-01-17T01:28:29.531Z,93.42
2023-01-17T01:31:17.794Z,93.46
2023-01-17T01:33:45.503Z,93.16
2023-01-17T01:36:12.938Z,92.99
2023-01-17T01:38:40.486Z,93.22
2023-01-17T01:41:08.161Z,92.95
2023-01-17T01:43:51.123Z,93.37
2023-01-17T01:46:32.315Z,93.10
2023-01-17T01:49:21.789Z,93.15
2023-01-17T01:52:00.128Z,93.90
2023-01-17T01:54:44.686Z,93.62
2023-01-17T01:57:17.372Z,93.55
2023-01-17T01:59:49.345Z,93.19
2023-01-17T02:02:17.242Z,94.16
2023-01-17T02:04:45.741Z,93.39
2023-01-17T02:07:26.095Z,93.38
2023-01-17T02:09:54.910Z,93.69
2023-01-17T02:12:22.746Z,94.03
2023-01-17T02:14:51.072Z,93.92
2023-01-17T02:17:37.314Z,94.50
2023-01-17T02:20:33.750Z,94.51
2023-01-17T02:23:38.798Z,94.25
2023-01-17T02:26:24.046Z,94.63
2023-01-17T02:29:24.979Z,94.16
2023-01-17T02:32:06.030Z,93.92
2023-01-17T02:34:52.227Z,94.46
2023-01-17T02:37:29.009Z,93.88
2023-01-17T02:40:14.627Z,93.87
2023-01-17T02:42:51.082Z,94.20
2023-01-17T02:45:19.580Z,94.10
2023-01-17T02:47:47.568Z,94.43
2023-01-17T02:50:22.390Z,94.16
2023-01-17T02:52:56.759Z,94.68
2023-01-17T02:55:38.451Z,94.68
2023-01-17T02:58:13.397Z,93.95
2023-01-17T03:01:02.119Z,94.61
2023-01-17T03:03:51.032Z,93.96
2023-01-17T03:06:29.733Z,93.87
2023-01-17T03:08:57.396Z,94.15
2023-01-17T03:11:25.061Z,94.31
2023-01-17T03:13:57.288Z,94.08
2023-01-17T03:16:27.738Z,94.30
2023-01-17T03:18:55.397Z,93.94
2023-01-17T03:21:24.281Z,93.55
2023-01-17T03:23:52.483Z,93.92
2023-01-17T03:26:19.894Z,93.82
2023-01-17T03:28:47.626Z,93.98
2023-01-17T03:31:17.040Z,94.33
2023-01-17T03:33:44.295Z,95.09
2023-01-17T03:36:12.475Z,95.46
2023-01-17T03:38:40.100Z,95.25
2023-01-17T03:41:08.332Z,95.40
2023-01-17T03:43:36.019Z,95.43
2023-01-17T03:46:05.614Z,95.27
2023-01-17T03:48:33.848Z,96.45
2023-01-17T03:51:01.363Z,96.57
2023-01-17T03:53:28.849Z,96.98
2023-01-17T03:55:56.462Z,97.25
2023-01-17T03:58:24.225Z,97.60
2023-01-17T04:00:51.735Z,98.21
2023-01-17T04:03:19.028Z,98.21
2023-01-17T04:05:46.984Z,99.02
2023-01-17T04:08:14.454Z,98.97
2023-01-17T04:10:42.213Z,100.00
2023-01-17T04:13:09.773Z,99.87
2023-01-17T04:15:37.164Z,100.00
2023-01-17T04:18:06.744Z,100.00
2023-01-17T04:20:38.290Z,100.00
2023-01-17T04:23:06.734Z,100.00
2023-01-17T04:25:34.771Z,100.00
2023-01-17T04:28:04.018Z,100.00
2023-01-17T04:30:32.868Z,100.00
2023-01-17T04:33:00.485Z,100.00
2023-01-17T04:35:31.201Z,100.00
2023-01-17T04:37:58.712Z,100.00
2023-01-17T04:40:26.610Z,100.00
2023-01-17T04:42:54.672Z,100.00
2023-01-17T04:45:22.221Z,100.00
2023-01-17T04:47:50.000Z,100.00
2023-01-17T04:50:18.522Z,100.00
2023-01-17T04:52:45.911Z,100.00
2023-01-17T04:55:13.629Z,100.00
2023-01-17T04:57:41.637Z,100.00
2023-01-17T05:00:09.557Z,100.00
2023-01-17T05:02:37.052Z,100.00
2023-01-17T05:05:05.242Z,100.00
2023-01-17T05:07:34.972Z,100.00
2023-01-17T05:10:04.630Z,100.00
2023-01-17T05:12:32.402Z,100.00
2023-01-17T05:15:00.022Z,100.00
2023-01-17T05:17:27.405Z,100.00
2023-01-17T05:19:55.026Z,100.00
2023-01-17T05:22:22.584Z,100.00
2023-01-17T05:24:49.890Z,100.00
2023-01-17T05:27:17.611Z,100.00
2023-01-17T05:29:45.202Z,100.00
2023-01-17T05:32:12.749Z,100.00
2023-01-17T05:34:40.300Z,100.00
2023-01-17T05:37:07.751Z,100.00
2023-01-17T05:39:35.385Z,100.00
2023-01-17T05:42:03.058Z,100.00
2023-01-17T05:44:30.485Z,100.00
2023-01-17T05:46:58.005Z,100.00
2023-01-17T05:49:25.784Z,100.00
2023-01-17T05:51:54.894Z,100.00
2023-01-17T05:54:22.424Z,100.00
2023-01-17T05:56:49.958Z,100.00
2023-01-17T05:59:25.617Z,100.00
2023-01-17T06:02:00.117Z,100.00
2023-01-17T06:04:27.791Z,100.00
2023-01-17T06:06:55.036Z,100.00
2023-01-17T06:09:22.632Z,100.00
2023-01-17T06:11:50.130Z,100.00
2023-01-17T06:14:17.430Z,100.00
2023-01-17T06:16:44.869Z,100.00
2023-01-17T06:19:12.469Z,100.00
2023-01-17T06:21:39.764Z,100.00
2023-01-17T06:24:07.422Z,100.00
2023-01-17T06:26:34.914Z,100.00
2023-01-17T06:29:02.348Z,100.00
2023-01-17T06:31:29.973Z,100.00
2023-01-17T06:33:57.686Z,100.00
2023-01-17T06:36:25.046Z,100.00
2023-01-17T06:38:52.766Z,100.00
2023-01-17T06:41:20.156Z,100.00
2023-01-17T06:43:47.579Z,100.00
2023-01-17T06:46:15.717Z,100.00
2023-01-17T06:48:43.797Z,100.00
2023-01-17T06:51:11.376Z,100.00
2023-01-17T06:53:39.151Z,100.00
2023-01-17T06:56:07.166Z,100.00
2023-01-17T06:58:34.896Z,100.00
2023-01-17T07:01:13.036Z,100.00
2023-01-17T07:03:40.641Z,100.00
2023-01-17T07:06:09.668Z,100.00
2023-01-17T07:08:37.399Z,100.00
2023-01-17T07:11:08.159Z,100.00
2023-01-17T07:13:37.613Z,100.00
2023-01-17T07:16:06.748Z,100.00
2023-01-17T07:18:34.765Z,100.00
2023-01-17T07:21:02.032Z,100.00
2023-01-17T07:23:29.728Z,100.00
2023-01-17T07:26:01.124Z,100.00
2023-01-17T07:28:28.697Z,100.00
2023-01-17T07:30:56.514Z,100.00
2023-01-17T07:33:23.843Z,100.00
2023-01-17T07:35:51.610Z,100.00
2023-01-17T07:38:20.446Z,100.00
2023-01-17T07:40:48.065Z,100.00
2023-01-17T07:43:15.589Z,100.00
2023-01-17T07:45:51.459Z,100.00
2023-01-17T07:48:20.809Z,100.00
2023-01-17T07:50:58.838Z,100.00
2023-01-17T07:53:28.672Z,100.00
2023-01-17T07:56:00.264Z,100.00
2023-01-17T07:58:27.817Z,100.00
2023-01-17T08:01:00.791Z,100.00
2023-01-17T08:03:32.558Z,100.00
2023-01-17T08:06:00.239Z,100.00
2023-01-17T08:08:28.834Z,100.00
2023-01-17T08:10:56.232Z,100.00
2023-01-17T08:13:24.144Z,100.00
2023-01-17T08:15:52.066Z,100.00
2023-01-17T08:18:19.998Z,100.00
2023-01-17T08:20:47.527Z,100.00
2023-01-17T08:23:14.871Z,100.00
2023-01-17T08:25:42.630Z,100.00
2023-01-17T08:28:09.910Z,100.00
2023-01-17T08:30:37.339Z,100.00
2023-01-17T08:33:05.049Z,100.00
2023-01-17T08:35:33.119Z,100.00
2023-01-17T08:38:04.912Z,100.00
2023-01-17T08:40:35.580Z,100.00
2023-01-17T08:43:04.010Z,100.00
2023-01-17T08:45:31.330Z,100.00
2023-01-17T08:47:59.687Z,100.00
2023-01-17T08:50:27.468Z,100.00
2023-01-17T08:53:03.947Z,100.00
2023-01-17T08:55:31.205Z,100.00
2023-01-17T08:57:58.674Z,100.00
2023-01-17T09:00:27.497Z,100.00
2023-01-17T09:02:54.942Z,100.00
2023-01-17T09:05:22.633Z,100.00
2023-01-17T09:07:50.597Z,100.00
2023-01-17T09:10:18.133Z,100.00
2023-01-17T09:12:45.521Z,100.00
2023-01-17T09:15:18.077Z,100.00
2023-01-17T09:17:45.676Z,100.00
2023-01-17T09:20:13.669Z,100.00
2023-01-17T09:22:41.397Z,100.00
2023-01-17T09:25:09.253Z,100.00
2023-01-17T09:27:36.527Z,100.00
2023-01-17T09:30:05.260Z,100.00
2023-01-17T09:32:32.623Z,100.00
2023-01-17T09:35:01.097Z,100.00
2023-01-17T09:37:29.163Z,100.00
2023-01-17T09:39:56.474Z,100.00
2023-01-17T09:42:38.466Z,100.00
2023-01-17T09:45:14.848Z,100.00
2023-01-17T09:47:46.911Z,100.00
2023-01-17T09:50:16.937Z,100.00
2023-01-17T09:52:44.924Z,100.00
2023-01-17T09:55:17.179Z,100.00
2023-01-17T09:58:00.692Z,100.00
2023-01-17T10:00:28.354Z,100.00
2023-01-17T10:03:20.522Z,100.00
2023-01-17T10:06:15.600Z,100.00
2023-01-17T10:08:45.905Z,100.00
2023-01-17T10:11:47.235Z,100.00
2023-01-17T10:15:14.858Z,100.00
2023-01-17T10:17:55.138Z,100.00
2023-01-17T10:20:41.321Z,100.00
2023-01-17T10:23:41.986Z,100.00
2023-01-17T10:26:17.969Z,100.00
2023-01-17T10:28:49.409Z,100.00
2023-01-17T10:31:25.578Z,100.00
2023-01-17T10:33:56.461Z,100.00
2023-01-17T10:36:30.162Z,100.00
2023-01-17T10:39:01.600Z,100.00
2023-01-17T10:41:44.019Z,100.00
2023-01-17T10:44:18.623Z,100.00
2023-01-17T10:46:55.122Z,100.00
2023-01-17T10:49:26.728Z,100.00
2023-01-17T10:52:04.372Z,100.00
2023-01-17T10:54:44.235Z,100.00
2023-01-17T10:57:26.109Z,100.00
2023-01-17T11:00:00.144Z,100.00
2023-01-17T11:02:32.165Z,100.00
2023-01-17T11:05:11.498Z,100.00
2023-01-17T11:07:40.183Z,100.00
2023-01-17T11:10:48.482Z,100.00
2023-01-17T11:13:35.893Z,100.00
2023-01-17T11:16:16.535Z,100.00
2023-01-17T11:18:44.141Z,100.00
2023-01-17T11:21:21.960Z,100.00
2023-01-17T11:23:53.484Z,100.00
2023-01-17T11:26:24.017Z,100.00
2023-01-17T11:28:54.855Z,100.00
2023-01-17T11:31:27.001Z,100.00
2023-01-17T11:34:33.404Z,100.00
2023-01-17T11:37:20.754Z,100.00
2023-01-17T11:39:51.074Z,100.00
2023-01-17T11:42:33.862Z,100.00
2023-01-17T11:45:30.285Z,100.00
2023-01-17T11:48:23.961Z,100.00
2023-01-17T11:50:58.624Z,100.00
2023-01-17T11:53:30.639Z,100.00
2023-01-17T11:56:24.538Z,100.00
2023-01-17T11:58:52.299Z,100.00
2023-01-17T12:01:43.929Z,100.00
2023-01-17T12:04:23.742Z,100.00
2023-01-17T12:07:08.751Z,100.00
2023-01-17T12:10:09.660Z,100.00
2023-01-17T12:13:15.481Z,100.00
2023-01-17T12:15:52.275Z,100.00
2023-01-17T12:18:29.330Z,100.00
2023-01-17T12:21:15.411Z,100.00
2023-01-17T12:24:07.584Z,100.00
2023-01-17T12:26:50.033Z,100.00
2023-01-17T12:29:48.011Z,100.00
2023-01-17T12:32:38.683Z,100.00
2023-01-17T12:35:15.713Z,100.00
2023-01-17T12:38:04.250Z,100.00
2023-01-17T12:40:51.457Z,100.00
2023-01-17T12:43:23.884Z,100.00
2023-01-17T12:45:55.083Z,100.00
2023-01-17T12:48:26.104Z,100.00
2023-01-17T12:50:57.617Z,100.00
2023-01-17T12:53:38.129Z,100.00
2023-01-17T12:56:16.771Z,100.00
2023-01-17T12:58:52.495Z,100.00
2023-01-17T13:01:30.858Z,100.00
2023-01-17T13:04:20.160Z,100.00
2023-01-17T13:06:58.077Z,100.00
2023-01-17T13:09:28.387Z,100.00
2023-01-17T13:12:01.634Z,100.00
2023-01-17T13:14:29.244Z,100.00
2023-01-17T13:17:02.910Z,99.75
2023-01-17T13:19:54.423Z,99.60
2023-01-17T13:22:24.368Z,99.76
2023-01-17T13:25:30.893Z,99.42
2023-01-17T13:28:22.125Z,99.45
2023-01-17T13:31:14.117Z,98.80
2023-01-17T13:33:46.370Z,98.58
2023-01-17T13:36:25.553Z,98.58
2023-01-17T13:39:15.626Z,98.83
2023-01-17T13:42:03.233Z,98.81
2023-01-17T13:44:32.317Z,98.85
2023-01-17T13:47:04.578Z,98.62
2023-01-17T13:49:34.357Z,99.13
2023-01-17T13:52:03.545Z,99.11
2023-01-17T13:54:34.376Z,98.46
2023-01-17T13:57:29.275Z,97.89
2023-01-17T13:59:58.426Z,98.91
2023-01-17T14:02:32.216Z,98.82
2023-01-17T14:05:23.197Z,98.84
2023-01-17T14:08:06.276Z,98.73
2023-01-17T14:10:38.903Z,98.81
2023-01-17T14:13:27.225Z,98.46
2023-01-17T14:15:54.884Z,98.70
2023-01-17T14:18:31.948Z,98.34
2023-01-17T14:21:22.752Z,98.40
2023-01-17T14:23:59.749Z,98.29
2023-01-17T14:26:43.676Z,98.60
2023-01-17T14:29:45.708Z,98.39
2023-01-17T14:32:27.423Z,98.72
2023-01-17T14:34:55.350Z,98.25
2023-01-17T14:37:49.999Z,98.28
2023-01-17T14:40:26.469Z,98.50
2023-01-17T14:43:16.249Z,98.10
2023-01-17T14:45:44.246Z,97.98
2023-01-17T14:48:30.321Z,97.84
2023-01-17T14:51:02.309Z,97.99
2023-01-17T14:53:31.827Z,97.81
2023-01-17T14:56:03.891Z,98.12
2023-01-17T14:58:33.727Z,98.69
2023-01-17T15:01:11.847Z,98.08
2023-01-17T15:03:51.438Z,98.15
2023-01-17T15:06:25.552Z,98.59
2023-01-17T15:08:55.984Z,98.67
2023-01-17T15:11:27.165Z,98.33
2023-01-17T15:13:57.900Z,98.57
2023-01-17T15:16:31.278Z,98.46
2023-01-17T15:18:59.795Z,98.50
2023-01-17T15:21:35.671Z,98.03
2023-01-17T15:24:08.427Z,97.58
2023-01-17T15:26:40.622Z,97.51
2023-01-17T15:29:18.890Z,97.32
2023-01-17T15:31:50.134Z,97.58
2023-01-17T15:34:28.026Z,96.89
2023-01-17T15:36:58.303Z,96.85
2023-01-17T15:39:30.706Z,97.10
2023-01-17T15:42:01.144Z,96.99
2023-01-17T15:44:49.968Z,96.95
2023-01-17T15:47:29.386Z,96.52
2023-01-17T15:49:57.387Z,96.64
2023-01-17T15:52:24.872Z,96.66
2023-01-17T15:54:59.027Z,96.42
2023-01-17T15:57:31.722Z,96.48
2023-01-17T16:00:07.270Z,96.63
2023-01-17T16:02:38.817Z,96.02
2023-01-17T16:05:33.803Z,95.60
2023-01-17T16:08:04.709Z,95.41
2023-01-17T16:10:36.525Z,96.00
2023-01-17T16:13:06.508Z,95.67
2023-01-17T16:15:37.166Z,95.64
2023-01-17T16:18:16.748Z,95.94
2023-01-17T16:20:49.830Z,96.04
2023-01-17T16:23:17.424Z,95.81
2023-01-17T16:25:46.003Z,96.05
2023-01-17T16:28:13.931Z,95.75
2023-01-17T16:30:41.874Z,95.22
2023-01-17T16:33:12.299Z,95.36
2023-01-17T16:35:40.705Z,95.27
2023-01-17T16:38:12.260Z,94.61
2023-01-17T16:40:45.117Z,94.52
2023-01-17T16:43:18.362Z,94.54
2023-01-17T16:45:53.072Z,94.54
2023-01-17T16:48:21.452Z,94.44
2023-01-17T16:50:52.442Z,93.88
2023-01-17T16:53:28.373Z,94.44
2023-01-17T16:56:06.069Z,94.61
2023-01-17T16:58:33.776Z,94.96
2023-01-17T17:01:01.237Z,95.01
2023-01-17T17:03:29.799Z,94.51
2023-01-17T17:06:19.868Z,94.15
2023-01-17T17:08:47.816Z,94.12
2023-01-17T17:11:18.586Z,93.81
2023-01-17T17:13:48.118Z,93.63
2023-01-17T17:16:27.533Z,93.45
2023-01-17T17:19:00.676Z,93.60
2023-01-17T17:21:29.753Z,93.95
2023-01-17T17:23:59.614Z,93.52
2023-01-17T17:26:31.299Z,93.96
2023-01-17T17:28:59.345Z,94.09
2023-01-17T17:31:26.942Z,94.14
2023-01-17T17:33:59.185Z,93.92
2023-01-17T17:36:27.219Z,94.07
2023-01-17T17:38:56.147Z,94.02
2023-01-17T17:41:27.449Z,93.30
2023-01-17T17:43:55.515Z,93.54
2023-01-17T17:46:24.923Z,93.45
2023-01-17T17:48:53.528Z,92.89
2023-01-17T17:51:32.890Z,92.83
2023-01-17T17:54:06.145Z,92.93
2023-01-17T17:56:34.406Z,93.38
2023-01-17T17:59:03.640Z,93.55
2023-01-17T18:01:31.660Z,93.84
2023-01-17T18:04:03.050Z,93.50
2023-01-17T18:06:30.937Z,93.15
2023-01-17T18:08:58.489Z,93.47
2023-01-17T18:11:27.699Z,93.26
2023-01-17T18:13:57.017Z,93.29
2023-01-17T18:16:27.664Z,93.65
2023-01-17T18:18:57.250Z,93.44
2023-01-17T18:21:35.797Z,93.65
2023-01-17T18:24:15.029Z,93.28
2023-01-17T18:26:47.979Z,93.48
2023-01-17T18:29:17.873Z,93.38
2023-01-17T18:31:47.975Z,93.74
2023-01-17T18:34:21.442Z,93.57
2023-01-17T18:36:50.666Z,93.46
2023-01-17T18:39:27.870Z,93.05
2023-01-17T18:41:55.385Z,93.11
2023-01-17T18:44:22.894Z,93.20
2023-01-17T18:46:53.528Z,93.37
2023-01-17T18:49:21.214Z,93.22
2023-01-17T18:51:51.873Z,93.61
2023-01-17T18:54:21.352Z,93.70
2023-01-17T18:56:54.196Z,93.73
2023-01-17T18:59:23.692Z,93.86
2023-01-17T19:01:52.345Z,93.28
2023-01-17T19:04:22.030Z,93.13
2023-01-17T19:06:50.109Z,93.61
2023-01-17T19:09:19.886Z,93.53
2023-01-17T19:11:47.663Z,94.15
2023-01-17T19:14:18.502Z,94.08
2023-01-17T19:16:46.076Z,94.38
2023-01-17T19:19:15.479Z,94.96
2023-01-17T19:21:43.766Z,95.53
2023-01-17T19:24:14.487Z,96.25
2023-01-17T19:26:43.269Z,96.57
2023-01-17T19:29:11.027Z,96.77
2023-01-17T19:31:42.936Z,96.99
2023-01-17T19:34:11.251Z,97.06
2023-01-17T19:36:39.675Z,97.16
2023-01-17T19:39:12.120Z,96.58
2023-01-17T19:41:45.189Z,96.20
2023-01-17T19:44:14.820Z,96.13
2023-01-17T19:46:44.013Z,96.93
2023-01-17T19:49:11.944Z,96.75
2023-01-17T19:51:42.266Z,96.24
2023-01-17T19:54:09.703Z,95.89
2023-01-17T19:56:37.464Z,95.69
2023-01-17T19:59:05.100Z,95.61
2023-01-17T20:01:34.658Z,95.49
2023-01-17T20:04:03.570Z,95.64
2023-01-17T20:06:34.334Z,95.47
2023-01-17T20:09:02.195Z,95.63
2023-01-17T20:11:29.796Z,95.66
2023-01-17T20:13:59.015Z,95.81
2023-01-17T20:16:28.820Z,95.50
2023-01-17T20:18:58.206Z,95.64
2023-01-17T20:21:28.104Z,95.16
2023-01-17T20:23:57.682Z,95.03
2023-01-17T20:26:31.389Z,95.13
2023-01-17T20:28:59.087Z,95.25
2023-01-17T20:31:27.313Z,95.16
2023-01-17T20:33:56.263Z,94.88
2023-01-17T20:36:26.381Z,94.55
2023-01-17T20:38:54.796Z,94.65
2023-01-17T20:41:24.555Z,94.97
2023-01-17T20:43:54.362Z,94.60
2023-01-17T20:46:24.963Z,94.67
2023-01-17T20:48:54.655Z,94.18
2023-01-17T20:51:24.542Z,93.81
2023-01-17T20:53:54.524Z,94.58
2023-01-17T20:56:22.308Z,94.96
2023-01-17T20:58:51.896Z,94.31
2023-01-17T21:01:21.513Z,94.39
2023-01-17T21:03:51.852Z,93.59
2023-01-17T21:06:21.705Z,94.00
2023-01-17T21:08:49.720Z,94.02
2023-01-17T21:11:19.376Z,93.90
2023-01-17T21:13:48.918Z,93.55
2023-01-17T21:16:18.542Z,93.66
2023-01-17T21:18:52.498Z,93.67
2023-01-17T21:21:25.828Z,94.45
2023-01-17T21:23:55.325Z,95.31
2023-01-17T21:26:25.784Z,96.39
2023-01-17T21:28:53.990Z,97.19
2023-01-17T21:31:26.427Z,98.57
2023-01-17T21:33:58.336Z,99.18
2023-01-17T21:36:32.852Z,99.88
2023-01-17T21:39:04.950Z,100.00
2023-01-17T21:41:35.429Z,100.00
2023-01-17T21:44:08.411Z,100.00
2023-01-17T21:46:40.278Z,100.00
2023-01-17T21:49:12.850Z,100.00
2023-01-17T21:51:52.739Z,100.00
2023-01-17T21:54:46.986Z,100.00
2023-01-17T21:57:38.764Z,100.00
2023-01-17T22:00:09.048Z,100.00
2023-01-17T22:02:40.083Z,100.00
2023-01-17T22:05:09.304Z,100.00
2023-01-17T22:07:39.405Z,100.00
2023-01-17T22:10:07.178Z,100.00
2023-01-17T22:12:34.685Z,100.00
2023-01-17T22:15:02.337Z,100.00
2023-01-17T22:17:31.584Z,100.00
2023-01-17T22:19:58.995Z,100.00
2023-01-17T22:22:26.695Z,100.00
2023-01-17T22:24:53.997Z,100.00
2023-01-17T22:27:21.271Z,100.00
2023-01-17T22:29:48.945Z,100.00
2023-01-17T22:32:17.010Z,100.00
2023-01-17T22:34:44.271Z,100.00
2023-01-17T22:37:11.969Z,100.00
2023-01-17T22:39:39.614Z,100.00
2023-01-17T22:42:07.597Z,100.00
2023-01-17T22:44:35.160Z,100.00
2023-01-17T22:47:03.423Z,100.00
2023-01-17T22:49:30.792Z,100.00
2023-01-17T22:51:58.278Z,100.00
2023-01-17T22:54:25.892Z,100.00
2023-01-17T22:56:54.311Z,100.00
2023-01-17T22:59:22.033Z,100.00
2023-01-17T23:01:49.930Z,100.00
2023-01-17T23:04:17.516Z,100.00
2023-01-17T23:06:45.110Z,100.00
2023-01-17T23:09:14.976Z,100.00
2023-01-17T23:11:50.068Z,100.00
2023-01-17T23:14:26.055Z,100.00
2023-01-17T23:17:15.105Z,100.00
2023-01-17T23:19:48.263Z,100.00
2023-01-17T23:22:20.536Z,100.00
2023-01-17T23:24:58.392Z,100.00
2023-01-17T23:27:48.282Z,100.00
2023-01-17T23:30:20.825Z,100.00
2023-01-17T23:32:57.442Z,100.00
2023-01-17T23:35:27.780Z,100.00
2023-01-17T23:38:15.946Z,100.00
2023-01-17T23:41:04.362Z,100.00
2023-01-17T23:43:33.082Z,100.00
2023-01-17T23:46:00.872Z,100.00
2023-01-17T23:48:28.674Z,100.00
2023-01-17T23:51:07.292Z,100.00
2023-01-17T23:53:36.119Z,100.00
2023-01-17T23:56:14.200Z,100.00
2023-01-17T23:58:41.763Z,100.00
